createdAt,value
2022-08-12T00:00:35.288Z,25.95
2022-08-12T00:03:21.566Z,26.07
2022-08-12T00:06:09.047Z,26.07
2022-08-12T00:08:58.066Z,26.14
2022-08-12T00:11:45.781Z,26.03
2022-08-12T00:14:33.024Z,26.08
2022-08-12T00:17:18.982Z,25.98
2022-08-12T00:20:05.546Z,25.96
2022-08-12T00:22:58.665Z,25.90
2022-08-12T00:26:23.184Z,25.92
2022-08-12T00:29:02.199Z,25.80
2022-08-12T00:31:48.437Z,25.82
2022-08-12T00:34:35.627Z,25.78
2022-08-12T00:37:22.190Z,25.78
2022-08-12T00:40:11.552Z,25.71
2022-08-12T00:42:42.565Z,25.67
2022-08-12T00:45:12.259Z,25.61
2022-08-12T00:47:41.991Z,25.58
2022-08-12T00:50:18.142Z,25.59
2022-08-12T00:52:47.680Z,25.49
2022-08-12T00:55:19.282Z,25.54
2022-08-12T00:57:52.037Z,25.43
2022-08-12T01:00:23.282Z,25.32
2022-08-12T01:02:57.615Z,25.30
2022-08-12T01:05:44.667Z,25.30
2022-08-12T01:08:30.889Z,25.28
2022-08-12T01:11:13.587Z,25.27
2022-08-12T01:13:49.330Z,25.18
2022-08-12T01:16:22.899Z,25.17
2022-08-12T01:18:53.450Z,25.14
2022-08-12T01:21:57.959Z,25.11
2022-08-12T01:25:06.878Z,25.08
2022-08-12T01:27:39.325Z,25.03
2022-08-12T01:30:12.261Z,24.99
2022-08-12T01:32:42.776Z,24.95
2022-08-12T01:35:14.632Z,24.93
2022-08-12T01:37:50.092Z,24.88
2022-08-12T01:40:36.990Z,24.84
2022-08-12T01:43:10.105Z,24.82
2022-08-12T01:45:47.583Z,24.79
2022-08-12T01:48:26.031Z,24.70
2022-08-12T01:51:06.077Z,24.65
2022-08-12T01:53:51.140Z,24.57
2022-08-12T01:56:25.664Z,24.57
2022-08-12T01:59:16.347Z,24.48
2022-08-12T02:01:47.798Z,24.52
2022-08-12T02:04:46.831Z,24.44
2022-08-12T02:07:42.761Z,24.40
2022-08-12T02:10:51.255Z,24.35
2022-08-12T02:13:48.476Z,24.26
2022-08-12T02:16:31.532Z,24.22
2022-08-12T02:19:22.671Z,24.19
2022-08-12T02:22:01.503Z,24.16
2022-08-12T02:24:35.480Z,24.06
2022-08-12T02:27:08.315Z,24.06
2022-08-12T02:29:40.240Z,24.07
2022-08-12T02:32:09.999Z,24.00
2022-08-12T02:34:39.848Z,23.98
2022-08-12T02:37:10.610Z,23.96
2022-08-12T02:39:42.282Z,23.98
2022-08-12T02:42:13.067Z,23.88
2022-08-12T02:44:46.504Z,23.86
2022-08-12T02:47:58.076Z,23.82
2022-08-12T02:50:06.921Z,23.75
2022-08-12T02:52:35.967Z,23.69
2022-08-12T02:55:34.520Z,23.69
2022-08-12T02:58:05.527Z,23.68
2022-08-12T03:00:40.481Z,23.63
2022-08-12T03:03:12.674Z,23.58
2022-08-12T03:05:49.747Z,23.59
2022-08-12T03:08:32.638Z,23.63
2022-08-12T03:11:06.259Z,23.50
2022-08-12T03:13:52.316Z,23.47
2022-08-12T03:16:23.903Z,23.34
2022-08-12T03:18:52.477Z,23.37
2022-08-12T03:21:56.449Z,23.27
2022-08-12T03:24:15.498Z,23.33
2022-08-12T03:26:48.512Z,23.34
2022-08-12T03:29:18.699Z,23.32
2022-08-12T03:31:49.543Z,23.29
2022-08-12T03:34:23.613Z,23.28
2022-08-12T03:36:55.400Z,23.22
2022-08-12T03:39:37.017Z,23.25
2022-08-12T03:42:25.807Z,23.21
2022-08-12T03:45:34.840Z,23.16
2022-08-12T03:48:34.142Z,23.08
2022-08-12T03:51:21.280Z,23.03
2022-08-12T03:54:11.109Z,22.88
2022-08-12T03:56:58.435Z,22.95
2022-08-12T03:59:44.556Z,23.02
2022-08-12T04:02:15.914Z,22.99
2022-08-12T04:04:46.731Z,22.89
2022-08-12T04:07:16.457Z,22.81
2022-08-12T04:09:47.453Z,22.88
2022-08-12T04:12:33.753Z,22.81
2022-08-12T04:15:03.556Z,22.84
2022-08-12T04:17:34.394Z,22.83
2022-08-12T04:20:04.629Z,22.83
2022-08-12T04:22:33.512Z,22.77
2022-08-12T04:25:02.600Z,22.73
2022-08-12T04:27:32.449Z,22.64
2022-08-12T04:30:21.315Z,22.61
2022-08-12T04:32:52.302Z,22.63
2022-08-12T04:35:23.851Z,22.63
2022-08-12T04:37:58.333Z,22.65
2022-08-12T04:40:31.865Z,22.62
2022-08-12T04:43:02.235Z,22.62
2022-08-12T04:45:31.559Z,22.48
2022-08-12T04:48:01.967Z,22.33
2022-08-12T04:50:36.020Z,22.41
2022-08-12T04:53:08.240Z,22.18
2022-08-12T04:55:39.112Z,22.23
2022-08-12T04:58:08.482Z,21.87
2022-08-12T05:00:38.545Z,21.83
2022-08-12T05:03:08.257Z,22.80
2022-08-12T05:05:38.703Z,23.69
2022-08-12T05:08:13.251Z,24.34
2022-08-12T05:10:41.659Z,24.84
2022-08-12T05:13:14.503Z,24.97
2022-08-12T05:16:03.923Z,25.32
2022-08-12T05:18:33.750Z,25.61
2022-08-12T05:21:05.477Z,25.89
2022-08-12T05:23:34.377Z,25.80
2022-08-12T05:26:02.842Z,25.52
2022-08-12T05:28:31.580Z,25.88
2022-08-12T05:31:01.920Z,26.15
2022-08-12T05:33:37.723Z,26.68
2022-08-12T05:36:09.701Z,27.19
2022-08-12T05:38:58.267Z,26.96
2022-08-12T05:41:28.635Z,27.10
2022-08-12T05:43:58.885Z,26.52
2022-08-12T05:46:28.809Z,26.75
2022-08-12T05:48:59.055Z,27.38
2022-08-12T05:51:39.612Z,28.00
2022-08-12T05:54:11.252Z,28.53
2022-08-12T05:56:40.867Z,28.57
2022-08-12T05:59:11.422Z,28.93
2022-08-12T06:02:09.837Z,29.22
2022-08-12T06:04:29.551Z,29.21
2022-08-12T06:06:59.541Z,29.33
2022-08-12T06:09:30.366Z,29.55
2022-08-12T06:12:04.698Z,29.78
2022-08-12T06:14:39.209Z,30.07
2022-08-12T06:17:09.615Z,30.03
2022-08-12T06:20:26.481Z,29.73
2022-08-12T06:22:28.079Z,30.14
2022-08-12T06:24:56.403Z,30.54
2022-08-12T06:27:24.807Z,30.30
2022-08-12T06:30:10.105Z,30.47
2022-08-12T06:32:51.836Z,29.27
2022-08-12T06:35:46.672Z,29.95
2022-08-12T06:38:20.876Z,29.59
2022-08-12T06:41:10.453Z,28.07
2022-08-12T06:44:05.013Z,30.31
2022-08-12T06:46:29.895Z,29.79
2022-08-12T06:48:59.908Z,30.28
2022-08-12T06:51:31.125Z,28.63
2022-08-12T06:54:02.881Z,29.62
2022-08-12T06:57:03.554Z,30.32
2022-08-12T06:59:21.648Z,29.42
2022-08-12T07:01:51.501Z,29.20
2022-08-12T07:04:38.685Z,28.16
2022-08-12T07:07:08.620Z,30.79
2022-08-12T07:10:06.762Z,30.09
2022-08-12T07:12:28.327Z,30.60
2022-08-12T07:14:57.754Z,29.49
2022-08-12T07:17:26.519Z,30.68
2022-08-12T07:19:59.171Z,30.04
2022-08-12T07:22:27.959Z,28.67
2022-08-12T07:25:11.786Z,31.22
2022-08-12T07:27:42.747Z,31.14
2022-08-12T07:30:12.379Z,31.26
2022-08-12T07:32:41.222Z,31.27
2022-08-12T07:35:10.571Z,30.62
2022-08-12T07:37:42.833Z,31.74
2022-08-12T07:40:13.754Z,32.45
2022-08-12T07:42:43.695Z,31.73
2022-08-12T07:45:13.480Z,31.74
2022-08-12T07:47:43.505Z,30.60
2022-08-12T07:50:13.160Z,30.25
2022-08-12T07:52:47.256Z,29.96
2022-08-12T07:55:19.647Z,30.38
2022-08-12T07:57:56.009Z,31.64
2022-08-12T08:00:25.158Z,31.25
2022-08-12T08:02:54.627Z,30.94
2022-08-12T08:05:25.628Z,31.26
2022-08-12T08:07:57.634Z,30.81
2022-08-12T08:10:27.650Z,31.09
2022-08-12T08:12:56.223Z,30.95
2022-08-12T08:15:51.361Z,30.85
2022-08-12T08:18:26.217Z,30.87
2022-08-12T08:20:57.225Z,30.42
2022-08-12T08:23:56.404Z,30.93
2022-08-12T08:26:28.123Z,31.31
2022-08-12T08:28:57.001Z,30.69
2022-08-12T08:31:25.639Z,31.44
2022-08-12T08:34:01.344Z,31.79
2022-08-12T08:36:39.194Z,32.27
2022-08-12T08:39:09.205Z,31.88
2022-08-12T08:42:17.157Z,31.49
2022-08-12T08:44:45.953Z,32.11
2022-08-12T08:47:15.043Z,32.12
2022-08-12T08:49:43.626Z,32.40
2022-08-12T08:52:13.449Z,31.77
2022-08-12T08:55:01.988Z,32.08
2022-08-12T08:57:43.822Z,31.72
2022-08-12T09:00:15.800Z,31.91
2022-08-12T09:02:49.571Z,31.55
2022-08-12T09:05:28.238Z,31.97
2022-08-12T09:14:18.921Z,32.22
2022-08-12T09:16:57.883Z,32.10
2022-08-12T09:19:27.335Z,31.41
2022-08-12T09:22:00.325Z,32.05
2022-08-12T09:24:30.025Z,32.07
2022-08-12T09:26:59.052Z,31.10
2022-08-12T09:30:10.830Z,30.98
2022-08-12T09:32:29.433Z,31.38
2022-08-12T09:35:21.900Z,30.93
2022-08-12T09:37:55.137Z,31.42
2022-08-12T09:41:01.393Z,31.02
2022-08-12T09:43:35.020Z,31.57
2022-08-12T09:46:21.680Z,31.20
2022-08-12T09:48:56.635Z,31.68
2022-08-12T09:51:37.381Z,31.37
2022-08-12T09:54:30.897Z,31.29
2022-08-12T09:57:02.823Z,31.79
2022-08-12T10:00:16.570Z,32.67
2022-08-12T10:02:45.914Z,31.43
2022-08-12T10:05:17.724Z,32.52
2022-08-12T10:07:49.077Z,32.04
2022-08-12T10:10:22.665Z,31.90
2022-08-12T10:13:13.935Z,32.83
2022-08-12T10:16:05.288Z,31.90
2022-08-12T10:18:51.828Z,31.58
2022-08-12T10:21:23.879Z,31.09
2022-08-12T10:24:06.053Z,31.30
2022-08-12T10:26:53.409Z,32.33
2022-08-12T10:30:40.769Z,32.23
2022-08-12T10:32:44.814Z,31.35
2022-08-12T10:35:20.660Z,32.72
2022-08-12T10:38:34.680Z,32.46
2022-08-12T10:40:59.735Z,31.29
2022-08-12T10:43:56.083Z,30.96
2022-08-12T10:46:31.397Z,31.99
2022-08-12T10:49:07.033Z,31.97
2022-08-12T10:52:32.892Z,32.13
2022-08-12T10:54:42.591Z,31.83
2022-08-12T10:57:18.416Z,30.75
2022-08-12T11:00:33.788Z,31.45
2022-08-12T11:04:24.252Z,31.86
2022-08-12T11:07:07.182Z,31.98
2022-08-12T11:08:43.714Z,31.38
2022-08-12T11:12:07.720Z,31.46
2022-08-12T11:14:13.122Z,31.75
2022-08-12T11:17:43.219Z,32.70
2022-08-12T11:19:46.448Z,32.25
2022-08-12T11:22:15.166Z,31.81
2022-08-12T11:24:51.547Z,31.66
2022-08-12T11:27:23.573Z,31.33
2022-08-12T11:30:02.085Z,31.05
2022-08-12T11:32:38.548Z,31.86
2022-08-12T11:35:11.804Z,31.20
2022-08-12T11:37:59.314Z,31.66
2022-08-12T11:40:30.340Z,31.44
2022-08-12T11:43:18.959Z,31.80
2022-08-12T11:45:53.426Z,31.58
2022-08-12T11:48:26.936Z,31.51
2022-08-12T11:50:56.511Z,31.05
2022-08-12T11:53:57.544Z,31.58
2022-08-12T11:56:15.063Z,31.85
2022-08-12T12:02:00.987Z,31.28
2022-08-12T12:04:28.932Z,31.48
2022-08-12T12:07:07.378Z,30.81
2022-08-12T12:09:52.935Z,31.07
2022-08-12T12:12:25.394Z,31.25
2022-08-12T12:14:55.764Z,32.05
2022-08-12T12:17:25.211Z,31.46
2022-08-12T12:19:55.051Z,30.74
2022-08-12T12:22:27.072Z,30.70
2022-08-12T12:25:12.950Z,31.37
2022-08-12T12:28:05.863Z,31.37
2022-08-12T12:30:35.503Z,31.26
2022-08-12T12:33:04.639Z,31.96
2022-08-12T12:36:18.558Z,32.21
2022-08-12T12:38:25.366Z,31.67
2022-08-12T12:40:54.746Z,31.97
2022-08-12T12:43:28.441Z,31.74
2022-08-12T12:46:11.239Z,32.17
2022-08-12T12:48:44.060Z,32.32
2022-08-12T12:51:48.235Z,31.50
2022-08-12T12:54:10.461Z,31.83
2022-08-12T12:56:42.576Z,31.56
2022-08-12T12:59:54.529Z,31.84
2022-08-12T13:02:08.648Z,31.25
2022-08-12T13:04:38.069Z,31.88
2022-08-12T13:07:07.988Z,31.48
2022-08-12T13:09:37.051Z,31.57
2022-08-12T13:12:10.426Z,32.56
2022-08-12T13:14:40.677Z,32.60
2022-08-12T13:17:14.538Z,32.35
2022-08-12T13:19:48.390Z,31.90
2022-08-12T13:22:23.853Z,31.96
2022-08-12T13:24:56.923Z,32.45
2022-08-12T13:27:35.391Z,32.16
2022-08-12T13:30:11.493Z,31.91
2022-08-12T13:32:42.273Z,31.86
2022-08-12T13:35:33.048Z,32.05
2022-08-12T13:38:02.568Z,31.76
2022-08-12T13:40:33.769Z,31.93
2022-08-12T13:43:07.074Z,31.40
2022-08-12T13:45:37.280Z,32.40
2022-08-12T13:48:08.192Z,32.65
2022-08-12T13:50:39.167Z,32.25
2022-08-12T13:53:24.104Z,32.59
2022-08-12T13:55:59.693Z,32.44
2022-08-12T13:58:33.013Z,32.65
2022-08-12T14:01:06.472Z,31.95
2022-08-12T14:03:51.533Z,31.54
2022-08-12T14:06:21.875Z,31.45
2022-08-12T14:08:55.706Z,31.69
2022-08-12T14:11:27.832Z,32.08
2022-08-12T14:14:03.800Z,32.12
2022-08-12T14:16:49.339Z,31.43
2022-08-12T14:19:24.288Z,31.68
2022-08-12T14:21:58.852Z,31.85
2022-08-12T14:24:40.132Z,32.10
2022-08-12T14:27:11.287Z,31.57
2022-08-12T14:30:05.739Z,32.03
2022-08-12T14:32:35.521Z,31.61
2022-08-12T14:35:05.208Z,31.77
2022-08-12T14:37:55.565Z,31.77
2022-08-12T14:40:27.914Z,32.20
2022-08-12T14:42:57.934Z,32.31
2022-08-12T14:45:44.355Z,31.67
2022-08-12T14:48:24.082Z,31.98
2022-08-12T14:52:38.706Z,31.44
2022-08-12T14:55:05.698Z,31.89
2022-08-12T14:56:59.738Z,31.60
2022-08-12T14:59:57.257Z,31.56
2022-08-12T15:02:28.647Z,32.00
2022-08-12T15:05:00.828Z,31.89
2022-08-12T15:07:33.449Z,31.31
2022-08-12T15:10:31.325Z,31.49
2022-08-12T15:13:06.955Z,31.42
2022-08-12T15:15:44.101Z,31.39
2022-08-12T15:18:21.744Z,31.54
2022-08-12T15:20:54.767Z,31.79
2022-08-12T15:23:28.865Z,31.89
2022-08-12T15:25:59.732Z,32.26
2022-08-12T15:28:33.135Z,31.69
2022-08-12T15:31:02.341Z,31.53
2022-08-12T15:33:44.697Z,31.87
2022-08-12T15:36:19.453Z,31.94
2022-08-12T15:39:05.399Z,31.58
2022-08-12T15:41:49.280Z,31.70
2022-08-12T15:44:38.321Z,31.40
2022-08-12T15:47:08.971Z,32.01
2022-08-12T15:49:54.417Z,31.99
2022-08-12T15:52:30.342Z,31.82
2022-08-12T15:55:06.062Z,31.66
2022-08-12T15:57:41.631Z,31.10
2022-08-12T16:00:32.025Z,31.26
2022-08-12T16:03:01.912Z,31.23
2022-08-12T16:06:13.249Z,31.05
2022-08-12T16:08:27.485Z,31.37
2022-08-12T16:10:56.933Z,31.20
2022-08-12T16:13:34.255Z,30.63
2022-08-12T16:16:04.309Z,30.63
2022-08-12T16:18:56.110Z,30.69
2022-08-12T16:21:51.788Z,30.76
2022-08-12T16:24:15.339Z,31.00
2022-08-12T16:26:45.004Z,30.72
2022-08-12T16:29:15.504Z,30.65
2022-08-12T16:31:45.333Z,30.67
2022-08-12T16:34:42.149Z,30.93
2022-08-12T16:37:07.835Z,30.87
2022-08-12T16:39:57.445Z,30.94
2022-08-12T16:42:28.518Z,31.33
2022-08-12T16:44:59.487Z,31.05
2022-08-12T16:47:28.876Z,30.95
2022-08-12T16:50:17.545Z,31.25
2022-08-12T16:52:49.203Z,30.76
2022-08-12T16:55:19.893Z,30.85
2022-08-12T16:57:50.215Z,30.59
2022-08-12T17:00:24.126Z,30.59
2022-08-12T17:02:58.087Z,30.49
2022-08-12T17:05:31.299Z,30.40
2022-08-12T17:08:01.520Z,30.19
2022-08-12T17:10:36.816Z,30.59
2022-08-12T17:13:10.028Z,30.80
2022-08-12T17:15:57.657Z,31.10
2022-08-12T17:18:43.461Z,30.99
2022-08-12T17:21:17.553Z,30.87
2022-08-12T17:23:53.085Z,30.75
2022-08-12T17:26:30.927Z,30.50
2022-08-12T17:29:00.462Z,30.43
2022-08-12T17:32:01.007Z,30.49
2022-08-12T17:34:33.543Z,30.22
2022-08-12T17:37:05.244Z,30.19
2022-08-12T17:40:14.935Z,30.55
2022-08-12T17:42:34.488Z,30.44
2022-08-12T17:45:17.360Z,30.35
2022-08-12T17:48:01.554Z,30.08
2022-08-12T17:50:34.784Z,30.17
2022-08-12T17:53:04.020Z,30.22
2022-08-12T17:55:44.056Z,30.21
2022-08-12T17:58:37.249Z,29.96
2022-08-12T18:01:11.429Z,29.78
2022-08-12T18:03:57.505Z,30.05
2022-08-12T18:06:31.574Z,30.09
2022-08-12T18:09:09.679Z,29.94
2022-08-12T18:12:05.339Z,30.07
2022-08-12T18:14:41.367Z,29.62
2022-08-12T18:17:16.327Z,30.05
2022-08-12T18:20:05.022Z,30.10
2022-08-12T18:22:35.150Z,29.81
2022-08-12T18:25:06.678Z,30.08
2022-08-12T18:27:44.473Z,29.67
2022-08-12T18:30:28.945Z,29.46
2022-08-12T18:33:03.818Z,29.53
2022-08-12T18:35:46.620Z,29.46
2022-08-12T18:38:22.612Z,29.37
2022-08-12T18:41:27.417Z,29.54
2022-08-12T18:44:02.666Z,29.28
2022-08-12T18:46:54.270Z,29.34
2022-08-12T18:49:29.613Z,28.84
2022-08-12T18:52:03.951Z,28.99
2022-08-12T18:54:35.846Z,28.49
2022-08-12T18:57:16.532Z,28.36
2022-08-12T19:00:01.085Z,28.22
2022-08-12T19:02:36.408Z,28.14
2022-08-12T19:05:09.931Z,27.82
2022-08-12T19:07:50.049Z,28.13
2022-08-12T19:10:31.679Z,28.53
2022-08-12T19:13:20.996Z,28.96
2022-08-12T19:15:54.439Z,28.51
2022-08-12T19:18:26.185Z,28.40
2022-08-12T19:20:59.143Z,27.93
2022-08-12T19:23:34.859Z,29.05
2022-08-12T19:26:04.555Z,29.55
2022-08-12T19:28:36.467Z,29.66
2022-08-12T19:31:57.975Z,29.56
2022-08-12T19:35:07.022Z,29.53
2022-08-12T19:37:27.204Z,29.09
2022-08-12T19:40:30.771Z,29.24
2022-08-12T19:43:00.905Z,29.15
2022-08-12T19:45:41.753Z,29.10
2022-08-12T19:48:16.519Z,29.03
2022-08-12T19:50:50.560Z,29.06
2022-08-12T19:53:22.914Z,29.09
2022-08-12T19:55:53.850Z,29.02
2022-08-12T19:58:25.741Z,29.04
2022-08-12T20:00:56.039Z,28.62
2022-08-12T20:03:38.553Z,28.73
2022-08-12T20:06:18.302Z,28.89
2022-08-12T20:08:56.643Z,28.83
2022-08-12T20:12:09.829Z,28.62
2022-08-12T20:14:19.310Z,28.36
2022-08-12T20:16:56.470Z,28.59
2022-08-12T20:20:01.042Z,28.64
2022-08-12T20:22:29.875Z,28.70
2022-08-12T20:25:09.038Z,28.60
2022-08-12T20:28:04.194Z,28.53
2022-08-12T20:30:52.888Z,28.53
2022-08-12T20:33:23.252Z,28.52
2022-08-12T20:36:40.204Z,28.36
2022-08-12T20:38:59.283Z,28.30
2022-08-12T20:41:29.405Z,28.16
2022-08-12T20:43:59.675Z,28.24
2022-08-12T20:46:32.577Z,28.05
2022-08-12T20:49:14.310Z,28.16
2022-08-12T20:51:54.927Z,28.04
2022-08-12T20:54:32.748Z,28.09
2022-08-12T20:57:09.651Z,28.08
2022-08-12T20:59:47.682Z,28.09
2022-08-12T21:02:18.519Z,27.89
2022-08-12T21:05:16.464Z,27.91
2022-08-12T21:07:52.314Z,27.94
2022-08-12T21:10:26.449Z,27.90
2022-08-12T21:12:56.757Z,27.87
2022-08-12T21:15:30.545Z,27.88
2022-08-12T21:18:27.359Z,27.78
2022-08-12T21:20:59.187Z,27.80
2022-08-12T21:23:30.948Z,27.77
2022-08-12T21:26:12.431Z,27.71
2022-08-12T21:28:58.072Z,27.62
2022-08-12T21:32:36.310Z,27.64
2022-08-12T21:34:18.453Z,27.54
2022-08-12T21:36:49.493Z,27.53
2022-08-12T21:39:21.914Z,27.43
2022-08-12T21:41:55.459Z,27.43
2022-08-12T21:45:44.240Z,27.39
2022-08-12T21:47:21.271Z,27.31
2022-08-12T21:50:04.170Z,27.29
2022-08-12T21:52:36.952Z,27.22
2022-08-12T21:55:18.515Z,27.25
2022-08-12T21:57:54.565Z,27.25
2022-08-12T22:00:34.381Z,27.15
2022-08-12T22:04:01.929Z,27.14
2022-08-12T22:06:31.753Z,27.02
2022-08-12T22:09:16.022Z,27.06
2022-08-12T22:11:56.033Z,27.03
2022-08-12T22:14:28.953Z,27.04
2022-08-12T22:17:00.516Z,26.95
2022-08-12T22:19:33.570Z,26.93
2022-08-12T22:22:05.436Z,26.93
2022-08-12T22:24:34.556Z,26.83
2022-08-12T22:27:08.190Z,26.78
2022-08-12T22:30:27.505Z,26.75
2022-08-12T22:32:56.139Z,26.69
2022-08-12T22:35:55.237Z,26.56
2022-08-12T22:38:24.819Z,26.51
2022-08-12T22:40:58.457Z,26.49
2022-08-12T22:43:58.897Z,26.39
2022-08-12T22:46:52.748Z,26.30
2022-08-12T22:49:37.175Z,26.25
2022-08-12T22:52:13.115Z,26.23
2022-08-12T22:55:00.198Z,26.13
2022-08-12T22:57:53.439Z,26.09
2022-08-12T23:00:24.120Z,26.00
2022-08-12T23:03:00.787Z,25.96
2022-08-12T23:05:57.326Z,25.95
2022-08-12T23:08:22.643Z,25.83
2022-08-12T23:10:51.438Z,25.76
2022-08-12T23:13:43.284Z,25.72
2022-08-12T23:16:18.117Z,25.72
2022-08-12T23:19:09.565Z,25.70
2022-08-12T23:22:06.192Z,25.62
2022-08-12T23:24:32.231Z,25.55
2022-08-12T23:27:22.090Z,25.56
2022-08-12T23:30:16.683Z,25.50
2022-08-12T23:32:38.994Z,25.37
2022-08-12T23:35:09.783Z,25.40
2022-08-12T23:37:53.592Z,25.37
2022-08-12T23:40:24.736Z,25.31
2022-08-12T23:42:55.291Z,25.32
2022-08-12T23:45:31.187Z,25.22
2022-08-12T23:48:00.539Z,25.22
2022-08-12T23:50:33.794Z,25.17
2022-08-12T23:53:06.417Z,25.12
2022-08-12T23:55:45.607Z,25.04
2022-08-12T23:58:22.993Z,25.08
